Time;durP1;ratioP1;P1;durP2;ratioP2;P2;SDS_P1;SDS_P2;PMS_P1;PMS_P2;Temp;Humidity;BMP_temperature;BMP_pressure;BME280_temperature;BME280_humidity;BME280_pressure;Samples;Min_cycle;Max_cycle;Signal;HPM_P1;HPM_P2
2022/03/06 00:01:05;;;;;;;27.67;16.97;;;;;;;-143.84;83.54;45184.25;5050624;28;20434;-76
2022/03/06 00:03:33;;;;;;;27.43;17.13;;;;;;;-143.84;83.94;45220.44;5051026;28;20442;-76
2022/03/06 00:06:01;;;;;;;32.47;17.47;;;;;;;-143.84;84.15;45195.69;5050637;28;20842;-76
2022/03/06 00:08:28;;;;;;;28.17;16.23;;;;;;;-143.84;83.52;45201.41;5050607;28;20454;-77
2022/03/06 00:10:56;;;;;;;26.90;15.07;;;;;;;-143.84;83.91;45207.13;5050017;28;21172;-77
2022/03/06 00:13:24;;;;;;;26.50;15.97;;;;;;;-143.84;83.51;45188.06;5049740;28;20436;-76
2022/03/06 00:15:51;;;;;;;24.93;14.90;;;;;;;-143.84;83.32;45218.53;5050106;28;20446;-76
2022/03/06 00:18:18;;;;;;;23.53;13.40;;;;;;;-143.84;82.51;45209.03;5050126;28;21030;-76
2022/03/06 00:20:45;;;;;;;23.97;14.47;;;;;;;-143.84;82.35;45203.31;5050122;28;20470;-76
2022/03/06 00:23:14;;;;;;;26.23;13.43;;;;;;;-143.84;82.47;45218.53;5049463;28;21088;-76
2022/03/06 00:25:41;;;;;;;20.20;13.73;;;;;;;-143.84;82.74;45228.06;5049799;28;20838;-76
2022/03/06 00:28:09;;;;;;;19.93;12.87;;;;;;;-143.84;82.59;45231.88;5049778;28;20466;-76
2022/03/06 00:30:36;;;;;;;22.30;11.87;;;;;;;-143.84;81.62;45222.34;5049553;28;20431;-76
2022/03/06 00:33:05;;;;;;;19.30;13.03;;;;;;;-143.84;82.01;45212.84;5049185;28;20453;-76
2022/03/06 00:35:32;;;;;;;16.83;11.83;;;;;;;-143.84;81.32;45201.41;5049996;28;20442;-76
2022/03/06 00:38:00;;;;;;;21.07;12.47;;;;;;;-143.84;81.36;45220.44;5048557;28;20512;-76
2022/03/06 00:40:28;;;;;;;19.00;12.50;;;;;;;-143.84;80.48;45207.13;5049909;28;20433;-76
2022/03/06 00:42:55;;;;;;;20.90;13.03;;;;;;;-143.84;80.45;45209.03;5048509;28;21026;-76
2022/03/06 00:45:22;;;;;;;22.07;12.00;;;;;;;-143.84;80.15;45218.53;5049229;28;20499;-76
2022/03/06 00:47:49;;;;;;;20.60;12.57;;;;;;;-143.84;80.12;45243.31;5049646;28;20955;-76
2022/03/06 00:50:17;;;;;;;20.87;13.23;;;;;;;-143.84;79.62;45199.50;5050236;28;20442;-76
2022/03/06 00:52:44;;;;;;;21.37;12.57;;;;;;;-143.84;79.27;45210.94;5049956;28;20433;-75
2022/03/06 00:55:11;;;;;;;22.07;12.40;;;;;;;-143.84;79.22;45249.00;5049393;28;20453;-76
2022/03/06 00:57:40;;;;;;;16.17;11.30;;;;;;;-143.84;79.41;45231.88;5049464;28;20445;-76
2022/03/06 01:00:08;;;;;;;21.93;13.43;;;;;;;-143.84;79.71;45216.63;5049893;28;20445;-76
2022/03/06 01:02:36;;;;;;;25.40;14.10;;;;;;;-143.84;80.00;45209.03;5053907;28;20443;-76
2022/03/06 01:05:05;;;;;;;15.53;12.43;;;;;;;-143.84;79.93;45220.44;5053976;28;20446;-76
2022/03/06 01:07:32;;;;;;;19.13;12.83;;;;;;;-143.84;79.94;45220.44;5053598;28;20500;-76
2022/03/06 01:09:59;;;;;;;17.80;11.77;;;;;;;-143.84;79.99;45201.41;5053411;28;20483;-75
2022/03/06 01:12:26;;;;;;;18.57;12.20;;;;;;;-143.84;79.61;45205.22;5053588;28;20437;-76
2022/03/06 01:14:55;;;;;;;17.33;10.70;;;;;;;-143.84;79.52;45195.69;5053709;28;20438;-76
2022/03/06 01:17:22;;;;;;;16.50;10.73;;;;;;;-143.84;79.95;45167.13;5053772;28;20442;-76
2022/03/06 01:19:49;;;;;;;26.60;12.10;;;;;;;-143.84;79.49;45218.53;5053528;28;20844;-76
2022/03/06 01:22:17;;;;;;;18.10;12.00;;;;;;;-143.84;79.91;45228.06;5053554;28;20928;-76
2022/03/06 01:24:44;;;;;;;20.97;12.03;;;;;;;-143.84;79.72;45212.84;5053497;28;20503;-76
2022/03/06 01:27:11;;;;;;;21.10;12.00;;;;;;;-143.84;79.32;45228.06;5052917;28;20441;-76
2022/03/06 01:29:38;;;;;;;21.40;10.77;;;;;;;-143.84;79.19;45224.25;5053424;28;20635;-76
2022/03/06 01:32:08;;;;;;;21.67;10.37;;;;;;;-143.84;79.11;45207.13;5053331;28;20437;-76
2022/03/06 01:34:35;;;;;;;16.20;10.07;;;;;;;-143.84;78.75;45237.59;5053309;28;20495;-76
2022/03/06 01:37:03;;;;;;;17.20;10.37;;;;;;;-143.84;79.02;45201.41;5053474;28;20517;-77
2022/03/06 01:39:30;;;;;;;12.33;9.53;;;;;;;-143.84;78.87;45214.72;5053405;28;20481;-76
2022/03/06 01:41:57;;;;;;;11.20;8.63;;;;;;;-143.84;79.02;45224.25;5053079;28;20511;-76
2022/03/06 01:44:24;;;;;;;15.60;10.00;;;;;;;-143.84;79.15;45222.34;5053047;28;20444;-76
2022/03/06 01:46:51;;;;;;;13.60;10.47;;;;;;;-143.84;79.71;45243.31;5053047;28;20936;-76
2022/03/06 01:49:20;;;;;;;14.97;9.63;;;;;;;-143.84;79.81;45224.25;5052799;28;20462;-76
2022/03/06 01:51:47;;;;;;;12.27;9.80;;;;;;;-143.84;79.36;45193.78;5052764;28;20495;-76
2022/03/06 01:54:15;;;;;;;12.43;10.10;;;;;;;-143.84;79.47;45205.22;5053036;28;20446;-76
2022/03/06 01:56:42;;;;;;;15.30;10.03;;;;;;;-143.84;79.43;45188.06;5053123;28;20442;-76
2022/03/06 01:59:11;;;;;;;20.03;9.53;;;;;;;-143.84;80.00;45218.53;5052815;28;20477;-76
2022/03/06 02:01:39;;;;;;;14.80;9.17;;;;;;;-143.84;80.27;45218.53;5052739;28;20452;-76
2022/03/06 02:04:06;;;;;;;15.30;9.17;;;;;;;-143.84;80.28;45218.53;5052368;28;20439;-75
2022/03/06 02:06:36;;;;;;;18.40;10.10;;;;;;;-143.84;80.26;45186.16;5052660;28;20439;-76
2022/03/06 02:09:03;;;;;;;12.87;9.00;;;;;;;-143.84;80.50;45203.31;5052650;28;20456;-76
2022/03/06 02:11:30;;;;;;;14.17;8.43;;;;;;;-143.84;80.05;45228.06;5052463;28;20462;-76
2022/03/06 02:13:58;;;;;;;15.13;9.33;;;;;;;-143.84;80.11;45229.97;5051506;28;20497;-76
2022/03/06 02:16:25;;;;;;;14.20;9.60;;;;;;;-143.84;80.33;45207.13;5052150;28;20446;-76
2022/03/06 02:18:52;;;;;;;17.13;9.57;;;;;;;-143.84;79.92;45214.72;5052452;28;20477;-76
2022/03/06 02:21:21;;;;;;;15.67;11.30;;;;;;;-143.84;80.46;45186.16;5052194;28;20499;-76
2022/03/06 02:23:48;;;;;;;12.73;8.53;;;;;;;-143.84;80.26;45218.53;5052076;28;20490;-76
2022/03/06 02:26:16;;;;;;;15.90;9.70;;;;;;;-143.84;80.02;45218.53;5052430;28;20855;-76
2022/03/06 02:28:44;;;;;;;13.93;8.53;;;;;;;-143.84;79.54;45212.84;5052254;28;20442;-76
2022/03/06 02:31:13;;;;;;;16.70;9.67;;;;;;;-143.84;79.57;45228.06;5051449;28;20459;-76
2022/03/06 02:33:40;;;;;;;13.40;10.00;;;;;;;-143.84;80.04;45226.16;5050895;28;21065;-76
2022/03/06 02:36:07;;;;;;;14.70;10.00;;;;;;;-143.84;80.16;45209.03;5051427;28;20500;-77
2022/03/06 02:38:36;;;;;;;14.57;9.50;;;;;;;-143.84;79.38;45239.50;5051959;28;20482;-76
2022/03/06 02:41:03;;;;;;;12.17;8.83;;;;;;;-143.84;79.54;45216.63;5051847;28;20488;-76
2022/03/06 02:43:30;;;;;;;14.77;9.20;;;;;;;-143.84;79.86;45245.19;5051348;28;20495;-76
2022/03/06 02:45:58;;;;;;;17.17;9.53;;;;;;;-143.84;80.02;45226.16;5051607;28;20448;-76
2022/03/06 02:48:25;;;;;;;11.43;8.20;;;;;;;-143.84;79.79;45214.72;5050795;28;20438;-76
2022/03/06 02:50:53;;;;;;;11.00;8.70;;;;;;;-143.84;80.28;45212.84;5050600;28;20537;-76
2022/03/06 02:53:23;;;;;;;10.10;8.37;;;;;;;-143.84;80.45;45207.13;5052054;28;20451;-76
2022/03/06 02:55:51;;;;;;;18.70;9.07;;;;;;;-143.84;80.51;45214.72;5052124;28;21158;-76
2022/03/06 02:58:19;;;;;;;13.23;9.50;;;;;;;-143.84;80.62;45241.41;5049954;28;20461;-76
2022/03/06 03:00:46;;;;;;;14.43;9.27;;;;;;;-143.84;81.16;45216.63;5049082;28;20951;-76
2022/03/06 03:03:14;;;;;;;12.03;7.77;;;;;;;-143.84;80.82;45235.69;5049894;28;20445;-76
2022/03/06 03:05:41;;;;;;;14.67;8.10;;;;;;;-143.84;80.95;45220.44;5051420;28;20437;-76
2022/03/06 03:08:08;;;;;;;20.73;9.27;;;;;;;-143.84;81.29;45212.84;5051025;28;20450;-75
2022/03/06 03:10:35;;;;;;;14.10;8.87;;;;;;;-143.84;81.31;45205.22;5051433;28;20487;-76
2022/03/06 03:13:04;;;;;;;13.30;8.13;;;;;;;-143.84;81.47;45218.53;5051596;28;20442;-76
2022/03/06 03:15:31;;;;;;;12.03;8.50;;;;;;;-143.84;81.36;45199.50;5052046;28;20437;-76
2022/03/06 03:17:59;;;;;;;11.00;7.60;;;;;;;-143.84;81.58;45203.31;5051703;28;20438;-76
2022/03/06 03:20:26;;;;;;;10.47;8.50;;;;;;;-143.84;81.67;45212.84;5051325;28;20469;-76
2022/03/06 03:22:53;;;;;;;12.90;7.47;;;;;;;-143.84;81.56;45210.94;5050962;28;20477;-76
2022/03/06 03:25:20;;;;;;;10.10;8.00;;;;;;;-143.84;81.20;45203.31;5051181;28;20439;-76
2022/03/06 03:27:47;;;;;;;12.33;8.00;;;;;;;-143.84;81.47;45235.69;5051612;28;20912;-76
2022/03/06 03:30:16;;;;;;;13.37;8.67;;;;;;;-143.84;81.75;45207.13;5051435;28;20430;-76
2022/03/06 03:32:44;;;;;;;11.53;8.67;;;;;;;-143.84;81.68;45226.16;5051123;28;20780;-76
2022/03/06 03:35:11;;;;;;;14.10;8.57;;;;;;;-143.84;81.47;45226.16;5051215;28;20446;-76
2022/03/06 03:37:38;;;;;;;9.80;7.90;;;;;;;-143.84;81.50;45222.34;5050865;28;20437;-76
2022/03/06 03:40:08;;;;;;;13.53;8.37;;;;;;;-143.84;81.76;45252.81;5050926;28;20551;-76
2022/03/06 03:42:35;;;;;;;10.67;8.17;;;;;;;-143.84;81.23;45214.72;5050932;28;20468;-76
2022/03/06 03:45:02;;;;;;;14.60;8.90;;;;;;;-143.84;81.08;45231.88;5050974;28;20515;-77
2022/03/06 03:47:31;;;;;;;11.03;7.60;;;;;;;-143.84;81.19;45243.31;5051094;28;20438;-76
2022/03/06 03:49:58;;;;;;;13.70;8.07;;;;;;;-143.84;81.70;45228.06;5051047;28;20441;-76
2022/03/06 03:52:25;;;;;;;12.80;9.80;;;;;;;-143.84;81.79;45220.44;5050976;28;20442;-76
2022/03/06 03:54:52;;;;;;;10.17;7.30;;;;;;;-143.84;81.93;45254.72;5051278;28;20499;-76
2022/03/06 03:57:23;;;;;;;14.50;8.30;;;;;;;-143.84;81.67;45210.94;5050549;28;20495;-76
2022/03/06 03:59:50;;;;;;;10.90;7.63;;;;;;;-143.84;81.41;45220.44;5050629;28;20852;-76
2022/03/06 04:02:18;;;;;;;11.53;7.43;;;;;;;-143.84;81.50;45252.81;5051085;28;20433;-76
2022/03/06 04:04:46;;;;;;;10.83;7.37;;;;;;;-143.84;81.77;45195.69;5050818;28;20496;-76
2022/03/06 04:07:14;;;;;;;11.97;8.97;;;;;;;-143.84;82.04;45231.88;5050955;28;20438;-76
2022/03/06 04:09:41;;;;;;;10.23;8.97;;;;;;;-143.84;81.97;45220.44;5050739;28;20511;-76
2022/03/06 04:12:09;;;;;;;10.97;7.60;;;;;;;-143.84;81.81;45235.69;5050851;28;20441;-76
2022/03/06 04:14:36;;;;;;;11.63;8.47;;;;;;;-143.84;82.23;45249.00;5050725;28;20438;-76
2022/03/06 04:17:04;;;;;;;14.83;8.20;;;;;;;-143.84;82.22;45218.53;5050932;28;20496;-76
2022/03/06 04:19:31;;;;;;;9.57;8.00;;;;;;;-143.84;82.57;45235.69;5050026;28;20909;-76
2022/03/06 04:22:00;;;;;;;11.70;8.07;;;;;;;-143.84;82.72;45220.44;5049222;28;20450;-76
2022/03/06 04:24:27;;;;;;;13.43;8.20;;;;;;;-143.84;82.44;45222.34;5049629;28;20482;-76
2022/03/06 04:26:54;;;;;;;19.87;8.37;;;;;;;-143.84;82.10;45220.44;5050305;28;20433;-76
2022/03/06 04:29:21;;;;;;;17.10;8.30;;;;;;;-143.84;82.32;45210.94;5050214;28;20453;-76
2022/03/06 04:31:49;;;;;;;12.20;8.23;;;;;;;-143.84;82.17;45233.78;5050624;28;20859;-76
2022/03/06 04:34:17;;;;;;;14.70;9.47;;;;;;;-143.84;82.47;45201.41;5050626;28;20477;-75
2022/03/06 04:36:44;;;;;;;11.73;8.23;;;;;;;-143.84;82.55;45220.44;5052894;28;20433;-76
2022/03/06 04:39:12;;;;;;;12.07;8.20;;;;;;;-143.84;82.31;45247.09;5054073;28;20480;-77
2022/03/06 04:41:40;;;;;;;12.20;8.70;;;;;;;-143.84;82.53;45214.72;5054041;28;20799;-76
2022/03/06 04:44:07;;;;;;;12.97;8.70;;;;;;;-143.84;82.33;45231.88;5053742;28;20449;-76
2022/03/06 04:46:35;;;;;;;15.90;9.30;;;;;;;-143.84;82.28;45222.34;5054287;28;20456;-76
2022/03/06 04:49:02;;;;;;;12.00;8.90;;;;;;;-143.84;82.38;45229.97;5054204;28;20441;-76
2022/03/06 04:51:29;;;;;;;11.77;8.93;;;;;;;-143.84;82.21;45233.78;5054198;28;20851;-76
2022/03/06 04:53:56;;;;;;;12.97;8.70;;;;;;;-143.84;82.13;45203.31;5053826;28;20499;-76
2022/03/06 04:56:25;;;;;;;17.77;8.40;;;;;;;-143.84;82.04;45203.31;5054190;28;20480;-76
2022/03/06 04:58:52;;;;;;;13.87;9.80;;;;;;;-143.84;81.76;45231.88;5054069;28;20433;-76
2022/03/06 05:01:19;;;;;;;16.67;10.13;;;;;;;-143.84;81.67;45243.31;5053764;28;20441;-76
2022/03/06 05:03:46;;;;;;;13.80;8.33;;;;;;;-143.84;81.91;45199.50;5053794;28;20445;-76
2022/03/06 05:06:14;;;;;;;12.80;9.30;;;;;;;-143.84;82.09;45218.53;5053856;28;20437;-76
2022/03/06 05:08:41;;;;;;;19.40;8.87;;;;;;;-143.84;81.95;45195.69;5054260;28;20433;-76
2022/03/06 05:11:08;;;;;;;14.80;8.90;;;;;;;-143.84;81.67;45216.63;5053706;28;20864;-76
2022/03/06 05:13:36;;;;;;;16.17;9.20;;;;;;;-143.84;81.16;45222.34;5053313;28;20495;-76
2022/03/06 05:16:04;;;;;;;12.90;8.03;;;;;;;-143.84;81.35;45237.59;5053652;28;20446;-76
2022/03/06 05:18:32;;;;;;;14.77;9.33;;;;;;;-143.84;81.10;45220.44;5053471;28;20445;-76
2022/03/06 05:20:59;;;;;;;11.50;8.63;;;;;;;-143.84;81.05;45209.03;5053714;28;20569;-76
2022/03/06 05:23:26;;;;;;;11.73;9.17;;;;;;;-143.84;81.24;45188.06;5053434;28;20527;-76
2022/03/06 05:25:54;;;;;;;10.90;8.57;;;;;;;-143.84;81.07;45220.44;5053503;28;20969;-76
2022/03/06 05:28:22;;;;;;;17.40;8.57;;;;;;;-143.84;81.32;45203.31;5053269;28;20445;-76
2022/03/06 05:30:51;;;;;;;15.43;8.20;;;;;;;-143.84;81.24;45220.44;5053235;28;20475;-76
2022/03/06 05:33:19;;;;;;;17.13;9.07;;;;;;;-143.84;80.98;45220.44;5052962;28;20448;-76
2022/03/06 05:35:46;;;;;;;10.10;7.90;;;;;;;-143.84;81.10;45214.72;5052900;28;20469;-76
2022/03/06 05:38:14;;;;;;;16.73;9.60;;;;;;;-143.84;80.87;45228.06;5052950;28;20507;-76
2022/03/06 05:40:41;;;;;;;10.63;8.50;;;;;;;-143.84;81.01;45216.63;5052870;28;20470;-76
2022/03/06 05:43:09;;;;;;;13.50;8.60;;;;;;;-143.84;81.16;45218.53;5052675;28;20434;-76
2022/03/06 05:45:36;;;;;;;11.70;8.83;;;;;;;-143.84;80.84;45210.94;5052393;28;20500;-76
2022/03/06 05:48:05;;;;;;;14.97;9.70;;;;;;;-143.84;80.96;45226.16;5052654;28;20446;-76
2022/03/06 05:50:32;;;;;;;11.90;8.80;;;;;;;-143.84;81.27;45197.59;5051458;28;20442;-76
2022/03/06 05:52:59;;;;;;;19.53;11.73;;;;;;;-143.84;80.49;45212.84;5052483;28;20444;-76
2022/03/06 05:55:26;;;;;;;25.73;11.87;;;;;;;-143.84;79.88;45207.13;5052639;28;20484;-76
2022/03/06 05:57:53;;;;;;;16.03;10.77;;;;;;;-143.84;79.43;45226.16;5052700;28;20438;-76
2022/03/06 06:00:20;;;;;;;21.30;10.70;;;;;;;-143.84;79.02;45186.16;5052820;28;20548;-76
2022/03/06 06:02:49;;;;;;;26.50;12.40;;;;;;;-143.84;78.34;45209.03;5052880;28;20529;-76
2022/03/06 06:05:18;;;;;;;20.40;8.73;;;;;;;-143.84;77.65;45201.41;5052887;28;20442;-76
2022/03/06 06:07:45;;;;;;;19.17;9.33;;;;;;;-143.84;77.58;45226.16;5052372;28;20447;-76
2022/03/06 06:10:12;;;;;;;18.03;11.10;;;;;;;-143.84;76.69;45186.16;5051451;28;20450;-77
2022/03/06 06:12:40;;;;;;;21.23;9.70;;;;;;;-143.84;76.09;45195.69;5051626;28;20442;-76
2022/03/06 06:15:08;;;;;;;9.17;7.77;;;;;;;-143.84;75.31;45201.41;5051508;28;20855;-75
2022/03/06 06:17:36;;;;;;;12.23;8.40;;;;;;;-143.84;75.24;45186.16;5051125;28;20852;-74
2022/03/06 06:20:05;;;;;;;10.20;7.73;;;;;;;-143.84;75.11;45188.06;5051139;28;20535;-75
2022/03/06 06:22:34;;;;;;;10.80;8.10;;;;;;;-143.84;74.36;45207.13;5051897;28;20943;-75
2022/03/06 06:25:01;;;;;;;10.80;8.00;;;;;;;-143.84;73.99;45239.50;5052075;28;20444;-75
2022/03/06 06:27:29;;;;;;;13.77;8.40;;;;;;;-143.84;73.94;45180.47;5050908;28;20483;-75
2022/03/06 06:29:56;;;;;;;14.50;6.43;;;;;;;-143.84;73.52;45212.84;5033894;28;20473;-75
2022/03/06 06:32:24;;;;;;;12.27;8.63;;;;;;;-143.84;74.14;45205.22;5036053;28;20539;-73
2022/03/06 06:34:51;;;;;;;11.80;8.17;;;;;;;-143.84;74.21;45193.78;5050718;28;20507;-72
2022/03/06 06:37:19;;;;;;;13.93;9.37;;;;;;;-143.84;75.40;45188.06;5051741;28;20444;-74
2022/03/06 06:39:47;;;;;;;21.53;10.73;;;;;;;-143.84;74.58;45205.22;5041001;28;20474;-74
2022/03/06 06:42:14;;;;;;;11.43;8.00;;;;;;;-143.84;73.70;45197.59;5032361;28;20463;-74
2022/03/06 06:44:41;;;;;;;12.00;8.03;;;;;;;-143.84;73.89;45218.53;5030919;28;20502;-77
2022/03/06 06:47:08;;;;;;;9.00;7.77;;;;;;;-143.84;74.30;45199.50;5030808;28;20877;-74
2022/03/06 06:49:36;;;;;;;10.57;7.37;;;;;;;-143.84;73.68;45212.84;5030471;28;20501;-75
2022/03/06 06:52:03;;;;;;;14.57;7.83;;;;;;;-143.84;73.80;45203.31;5030632;28;20940;-73
2022/03/06 06:54:30;;;;;;;15.63;7.90;;;;;;;-143.84;73.62;45243.31;5029619;28;20442;-73
2022/03/06 06:56:59;;;;;;;13.93;8.90;;;;;;;-143.84;73.84;45193.78;5030528;28;20443;-73
2022/03/06 06:59:26;;;;;;;11.70;7.40;;;;;;;-143.84;73.16;45205.22;5029849;28;20443;-74
2022/03/06 07:01:53;;;;;;;9.33;7.03;;;;;;;-143.84;72.38;45178.56;5029889;28;20520;-74
2022/03/06 07:04:21;;;;;;;15.67;8.17;;;;;;;-143.84;72.19;45188.06;5037474;28;20446;-73
2022/03/06 07:06:48;;;;;;;8.83;7.40;;;;;;;-143.84;72.47;45203.31;5050534;28;20441;-73
2022/03/06 07:09:15;;;;;;;12.40;7.43;;;;;;;-143.84;72.67;45201.41;5049971;28;20434;-73
2022/03/06 07:11:42;;;;;;;13.50;7.57;;;;;;;-143.84;71.96;45184.25;5050463;28;20936;-73
2022/03/06 07:14:11;;;;;;;15.40;9.07;;;;;;;-143.84;72.17;45174.75;5050223;28;20441;-74
2022/03/06 07:16:38;;;;;;;14.90;8.37;;;;;;;-143.84;70.57;45216.63;5049614;28;20434;-74
2022/03/06 07:19:05;;;;;;;10.90;7.40;;;;;;;-143.84;70.43;45210.94;5049685;28;20442;-74
2022/03/06 07:21:32;;;;;;;11.30;7.50;;;;;;;-143.84;71.58;45212.84;5046861;28;20538;-74
2022/03/06 07:23:59;;;;;;;11.37;7.77;;;;;;;-143.84;70.63;45178.56;5049622;28;20481;-73
2022/03/06 07:26:27;;;;;;;8.10;7.30;;;;;;;-143.84;70.68;45216.63;5050229;28;20433;-73
2022/03/06 07:28:54;;;;;;;11.87;8.37;;;;;;;-143.84;70.31;45172.84;5050087;28;20491;-73
2022/03/06 07:31:22;;;;;;;11.77;7.60;;;;;;;-143.84;69.24;45193.78;5049508;28;20507;-73
2022/03/06 07:33:50;;;;;;;8.00;6.90;;;;;;;-143.84;68.88;45209.03;5049806;28;20442;-73
2022/03/06 07:36:17;;;;;;;10.80;7.93;;;;;;;-143.84;69.11;45188.06;5049597;28;20449;-73
2022/03/06 07:38:44;;;;;;;10.50;8.17;;;;;;;-143.84;68.65;45169.03;5049489;28;20532;-73
2022/03/06 07:41:12;;;;;;;9.13;7.03;;;;;;;-143.84;68.17;45193.78;5049470;28;20979;-73
2022/03/06 07:43:39;;;;;;;11.10;8.00;;;;;;;-143.84;69.05;45174.75;5049246;28;20434;-73
2022/03/06 07:46:06;;;;;;;12.23;8.07;;;;;;;-143.84;66.98;45172.84;5049227;28;20433;-73
2022/03/06 07:48:35;;;;;;;14.37;7.83;;;;;;;-143.84;65.77;45169.03;5049449;28;20450;-73
2022/03/06 07:51:03;;;;;;;11.80;6.87;;;;;;;-143.84;65.70;45170.94;5049893;28;20599;-73
2022/03/06 07:53:31;;;;;;;10.80;7.90;;;;;;;-143.84;64.95;45155.69;5048998;28;20843;-73
2022/03/06 07:55:58;;;;;;;9.67;7.60;;;;;;;-143.84;64.42;45176.66;5049145;28;20538;-73
2022/03/06 07:58:25;;;;;;;13.70;7.87;;;;;;;-143.84;63.91;45155.69;5048731;28;20492;-73
2022/03/06 08:00:52;;;;;;;10.93;8.10;;;;;;;-143.84;63.72;45195.69;5048351;28;20978;-73
2022/03/06 08:03:19;;;;;;;10.50;8.17;;;;;;;-143.84;63.60;45170.94;5048624;28;20476;-74
2022/03/06 08:05:48;;;;;;;9.83;7.53;;;;;;;-143.84;64.51;45163.31;5048361;28;20442;-73
2022/03/06 08:08:15;;;;;;;11.90;8.73;;;;;;;-143.84;64.11;45148.09;5047744;28;20523;-73
2022/03/06 08:10:43;;;;;;;12.83;9.10;;;;;;;-143.84;64.20;45191.88;5046784;28;20446;-73
2022/03/06 08:13:10;;;;;;;13.47;8.23;;;;;;;-143.84;63.52;45178.56;5047637;28;20446;-73
2022/03/06 08:15:41;;;;;;;12.43;9.37;;;;;;;-143.84;63.34;45172.84;5047291;28;20434;-73
2022/03/06 08:18:14;;;;;;;15.73;8.83;;;;;;;-143.84;63.91;45180.47;5047019;28;20452;-73
2022/03/06 10:06:36;;;;;;;5.93;5.43;;;;;;;-143.84;57.59;45144.28;5042561;28;20459;-74
2022/03/06 10:09:05;;;;;;;5.30;4.60;;;;;;;-143.84;57.27;45155.69;5038163;28;20450;-73
2022/03/06 10:11:32;;;;;;;7.73;5.60;;;;;;;-143.84;57.31;45167.13;5031049;28;21031;-72
2022/03/06 10:13:59;;;;;;;15.90;9.20;;;;;;;-143.84;57.60;45155.69;5044975;28;20435;-71
2022/03/06 10:16:27;;;;;;;9.03;7.17;;;;;;;-143.84;58.36;45150.00;5040783;28;20509;-71
2022/03/06 10:18:56;;;;;;;6.13;5.47;;;;;;;-143.84;58.87;45159.50;5046165;28;21028;-73
2022/03/06 10:21:25;;;;;;;9.20;5.20;;;;;;;-143.84;58.42;45165.22;5046089;28;20477;-73
2022/03/06 10:23:56;;;;;;;6.93;5.93;;;;;;;-143.84;58.46;45169.03;5038943;28;20486;-73
2022/03/06 10:26:25;;;;;;;6.57;5.50;;;;;;;-143.84;59.72;45132.84;5039105;28;20452;-73
2022/03/06 10:28:55;;;;;;;8.07;6.70;;;;;;;-143.84;61.48;45178.56;5031117;28;20443;-73
2022/03/06 10:31:23;;;;;;;11.80;8.47;;;;;;;-143.84;62.54;45151.91;5027139;28;20519;-73
2022/03/06 10:34:06;;;;;;;13.13;8.50;;;;;;;-143.84;63.23;45134.75;5026117;28;20824;-73
2022/03/06 10:36:39;;;;;;;13.00;9.10;;;;;;;-143.84;65.65;45159.50;5029011;28;20955;-72
2022/03/06 10:39:13;;;;;;;11.93;9.13;;;;;;;-143.84;64.47;45159.50;5036005;28;20458;-72
2022/03/06 10:41:42;;;;;;;11.00;8.70;;;;;;;-143.84;63.68;45115.72;5043175;28;20493;-72
2022/03/06 10:44:11;;;;;;;12.13;9.67;;;;;;;-143.84;63.42;45157.59;5039983;28;20450;-72
2022/03/06 10:46:38;;;;;;;7.57;6.80;;;;;;;-143.84;61.17;45144.28;5045891;28;20462;-72
2022/03/06 10:49:12;;;;;;;11.90;6.77;;;;;;;-143.84;61.20;45151.91;5046037;28;20462;-73
2022/03/06 10:51:41;;;;;;;8.13;6.60;;;;;;;-143.84;59.66;45153.81;5036647;28;20464;-73
2022/03/06 10:54:11;;;;;;;6.10;5.50;;;;;;;-143.84;59.61;45144.28;5041614;28;20958;-73
2022/03/06 10:56:39;;;;;;;8.10;5.90;;;;;;;-143.84;60.85;45193.78;5037375;28;20456;-73
2022/03/06 10:59:07;;;;;;;6.13;5.63;;;;;;;-143.84;58.20;45148.09;5032133;28;21015;-71
2022/03/06 11:01:44;;;;;;;10.30;6.43;;;;;;;-143.84;57.45;45167.13;5035395;28;20476;-72
2022/03/06 11:04:14;;;;;;;8.23;5.30;;;;;;;-143.84;57.64;45174.75;5038263;28;20485;-73
2022/03/06 11:06:43;;;;;;;7.30;5.83;;;;;;;-143.84;56.32;45169.03;5040671;28;21036;-72
2022/03/06 11:09:15;;;;;;;8.93;4.83;;;;;;;-143.84;56.49;45165.22;5019924;28;20967;-73
2022/03/06 11:11:46;;;;;;;8.30;5.97;;;;;;;-143.84;57.69;45148.09;5034989;28;20513;-72
2022/03/06 11:14:14;;;;;;;6.90;6.30;;;;;;;-143.84;59.62;45140.47;5043218;28;20435;-72
2022/03/06 11:16:42;;;;;;;7.97;6.40;;;;;;;-143.84;60.67;45161.41;5040630;28;20509;-72
2022/03/06 11:19:10;;;;;;;9.50;6.70;;;;;;;-143.84;60.96;45176.66;5037124;28;20451;-73
2022/03/06 11:21:41;;;;;;;11.37;6.23;;;;;;;-143.84;61.97;45142.38;5029796;28;20490;-72
2022/03/06 11:24:11;;;;;;;6.93;5.40;;;;;;;-143.84;62.31;45151.91;5035883;28;20450;-72
2022/03/06 11:26:56;;;;;;;11.23;8.07;;;;;;;-143.84;63.18;45146.19;5029515;28;20458;-72
2022/03/06 11:29:55;;;;;;;7.97;6.07;;;;;;;-143.84;62.26;45144.28;5029799;28;20452;-72
2022/03/06 11:32:27;;;;;;;9.33;5.60;;;;;;;-143.84;61.04;45151.91;5030491;28;20474;-72
2022/03/06 11:35:02;;;;;;;8.87;5.30;;;;;;;-143.84;61.22;45153.81;5030120;28;20511;-72
2022/03/06 11:37:29;;;;;;;6.53;5.43;;;;;;;-143.84;61.58;45161.41;5032892;28;21023;-71
2022/03/06 11:39:57;;;;;;;7.33;4.70;;;;;;;-143.84;59.97;45155.69;5036761;28;20475;-72
2022/03/06 11:42:58;;;;;;;7.80;4.80;;;;;;;-143.84;61.28;45150.00;5028280;28;20556;-73
2022/03/06 11:45:49;;;;;;;6.40;5.10;;;;;;;-143.84;60.83;45150.00;4964578;28;20457;-73
2022/03/06 11:48:55;;;;;;;9.97;7.13;;;;;;;-143.84;61.23;45170.94;4967799;28;20517;-73
2022/03/06 11:51:30;;;;;;;6.10;5.50;;;;;;;-143.84;62.34;45153.81;4993011;28;20461;-73
2022/03/06 11:54:00;;;;;;;7.33;4.90;;;;;;;-143.84;61.81;45169.03;5014093;28;20868;-72
2022/03/06 11:56:51;;;;;;;6.13;4.47;;;;;;;-143.84;61.80;45150.00;5027321;28;20454;-72
2022/03/06 11:59:44;;;;;;;4.30;3.90;;;;;;;-143.84;60.87;45140.47;5032234;28;20450;-72
2022/03/06 12:02:21;;;;;;;5.93;4.37;;;;;;;-143.84;61.59;45153.81;5034464;28;20855;-72
2022/03/06 12:04:53;;;;;;;4.63;4.13;;;;;;;-143.84;61.21;45170.94;5049227;28;20441;-72
2022/03/06 12:07:22;;;;;;;6.90;3.80;;;;;;;-143.84;61.64;45176.66;5057868;28;20492;-73
2022/03/06 12:09:53;;;;;;;4.87;3.83;;;;;;;-143.84;62.56;45176.66;5069649;28;21264;-73
2022/03/06 12:12:22;;;;;;;5.60;4.30;;;;;;;-143.84;63.10;45161.41;5069160;28;20438;-75
2022/03/06 12:14:53;;;;;;;4.93;4.20;;;;;;;-143.84;63.28;45167.13;5048565;28;20536;-74
2022/03/06 12:17:40;;;;;;;8.73;4.47;;;;;;;-143.84;64.14;45151.91;5053790;28;20523;-73
2022/03/06 12:20:41;;;;;;;4.50;4.10;;;;;;;-143.84;63.32;45184.25;5056744;28;20444;-73
2022/03/06 12:23:21;;;;;;;8.80;6.53;;;;;;;-143.84;65.05;45186.16;5053911;28;20450;-74
2022/03/06 12:25:53;;;;;;;10.30;5.30;;;;;;;-143.84;65.63;45163.31;5058627;28;20448;-74
2022/03/06 12:28:40;;;;;;;6.53;4.17;;;;;;;-143.84;65.82;45174.75;5057951;28;20450;-74
2022/03/06 12:31:37;;;;;;;5.63;4.57;;;;;;;-143.84;66.45;45157.59;5055913;28;20453;-73
2022/03/06 12:34:36;;;;;;;11.83;5.17;;;;;;;-143.84;66.90;45157.59;5048160;28;20448;-73
2022/03/06 12:37:04;;;;;;;17.47;4.80;;;;;;;-143.84;67.16;45161.41;5053218;28;20456;-73
2022/03/06 12:39:35;;;;;;;7.23;4.60;;;;;;;-143.84;68.06;45161.41;5058266;28;20441;-73
2022/03/06 12:42:03;;;;;;;8.23;5.57;;;;;;;-143.84;69.00;45165.22;5055210;28;20476;-73
2022/03/06 12:44:34;;;;;;;8.70;5.10;;;;;;;-143.84;68.92;45153.81;5056895;28;20441;-73
2022/03/06 12:47:04;;;;;;;9.60;6.00;;;;;;;-143.84;69.56;45151.91;5055118;28;20448;-75
2022/03/06 12:49:31;;;;;;;7.00;5.13;;;;;;;-143.84;69.09;45148.09;5057286;28;20454;-73
2022/03/06 12:51:58;;;;;;;6.30;5.40;;;;;;;-143.84;69.13;45184.25;5052507;28;20458;-74
2022/03/06 12:54:27;;;;;;;8.10;5.20;;;;;;;-143.84;69.11;45163.31;5059539;28;20446;-73
2022/03/06 12:56:56;;;;;;;7.30;5.70;;;;;;;-143.84;69.50;45172.84;5056683;28;20473;-73
2022/03/06 12:59:24;;;;;;;10.53;4.80;;;;;;;-143.84;69.60;45170.94;5062161;28;20469;-73
2022/03/06 13:01:51;;;;;;;8.13;5.43;;;;;;;-143.84;69.96;45210.94;5063292;28;20549;-74
2022/03/06 13:04:22;;;;;;;9.37;4.90;;;;;;;-143.84;68.96;45138.56;5056634;28;20515;-73